createdAt,value
2022-09-10T00:04:32.279Z,0.50
2022-09-10T00:07:34.357Z,0.63
2022-09-10T00:10:41.716Z,0.45
2022-09-10T00:13:44.182Z,0.63
2022-09-10T00:16:48.487Z,0.60
2022-09-10T00:19:52.759Z,0.90
2022-09-10T00:22:54.945Z,0.75
2022-09-10T00:25:59.228Z,0.68
2022-09-10T00:29:01.672Z,0.50
2022-09-10T00:32:03.796Z,0.70
2022-09-10T00:35:06.476Z,0.80
2022-09-10T00:38:10.625Z,0.70
2022-09-10T00:41:13.539Z,0.60
2022-09-10T00:44:37.677Z,0.80
2022-09-10T00:47:40.380Z,1.00
2022-09-10T00:50:49.993Z,1.00
2022-09-10T00:53:53.195Z,0.90
2022-09-10T00:57:03.207Z,0.70
2022-09-10T01:00:11.378Z,0.85
2022-09-10T01:03:16.439Z,0.68
2022-09-10T01:06:21.617Z,0.70
2022-09-10T01:09:25.334Z,0.70
2022-09-10T01:12:43.554Z,0.70
2022-09-10T01:15:48.230Z,0.60
2022-09-10T01:19:02.667Z,0.55
2022-09-10T01:22:29.222Z,0.65
2022-09-10T01:25:42.982Z,0.60
2022-09-10T01:29:00.177Z,0.52
2022-09-10T01:32:16.180Z,0.60
2022-09-10T01:35:29.727Z,0.90
2022-09-10T01:38:35.210Z,0.73
2022-09-10T01:41:38.663Z,0.70
2022-09-10T01:48:15.560Z,1.10
2022-09-10T01:51:41.755Z,0.80
2022-09-10T01:54:55.333Z,0.75
2022-09-10T01:58:03.181Z,0.80
2022-09-10T02:01:21.886Z,1.23
2022-09-10T02:04:25.624Z,0.65
2022-09-10T02:07:30.122Z,0.80
2022-09-10T02:10:32.207Z,0.98
2022-09-10T02:13:35.825Z,0.80
2022-09-10T02:16:56.324Z,0.85
2022-09-10T02:19:59.573Z,0.45
2022-09-10T02:23:02.477Z,0.60
2022-09-10T02:26:04.714Z,0.75
2022-09-10T02:29:07.966Z,0.77
2022-09-10T02:32:10.350Z,1.23
2022-09-10T02:35:12.455Z,0.73
2022-09-10T02:38:14.475Z,1.20
2022-09-10T02:41:18.796Z,0.70
2022-09-10T02:44:20.888Z,0.70
2022-09-10T02:47:25.092Z,0.70
2022-09-10T02:50:28.954Z,0.70
2022-09-10T02:53:31.729Z,0.70
2022-09-10T02:56:44.635Z,0.90
2022-09-10T02:59:47.610Z,0.80
2022-09-10T03:02:51.088Z,0.90
2022-09-10T03:05:53.045Z,0.60
2022-09-10T03:08:55.357Z,0.82
2022-09-10T03:15:01.567Z,0.50
2022-09-10T03:18:04.212Z,0.70
2022-09-10T03:24:15.910Z,0.73
2022-09-10T03:27:20.163Z,0.73
2022-09-10T03:30:22.423Z,0.88
2022-09-10T03:33:24.526Z,0.55
2022-09-10T03:36:29.165Z,0.50
2022-09-10T03:39:31.424Z,0.68
2022-09-10T03:42:33.446Z,0.63
2022-09-10T03:48:38.854Z,0.88
2022-09-10T03:51:42.249Z,0.90
2022-09-10T03:54:44.774Z,0.90
2022-09-10T03:57:46.857Z,1.17
2022-09-10T04:00:50.288Z,0.95
2022-09-10T04:03:57.123Z,0.82
2022-09-10T04:07:01.053Z,1.00
2022-09-10T04:10:03.943Z,0.80
2022-09-10T04:13:06.077Z,0.80
2022-09-10T04:16:09.763Z,0.90
2022-09-10T04:19:12.260Z,0.80
2022-09-10T04:22:15.419Z,1.02
2022-09-10T04:25:19.536Z,1.13
2022-09-10T04:28:21.473Z,0.98
2022-09-10T04:31:25.313Z,0.88
2022-09-10T04:34:30.953Z,1.00
2022-09-10T04:40:49.763Z,0.82
2022-09-10T04:43:55.228Z,0.80
2022-09-10T04:46:58.331Z,1.00
2022-09-10T04:50:00.686Z,0.55
2022-09-10T04:53:02.829Z,0.55
2022-09-10T04:56:08.240Z,0.77
2022-09-10T04:59:12.717Z,0.80
2022-09-10T05:02:14.674Z,0.68
2022-09-10T05:05:16.580Z,0.85
2022-09-10T05:08:18.889Z,0.75
2022-09-10T05:11:27.272Z,0.93
2022-09-10T05:14:29.653Z,0.70
2022-09-10T05:17:32.954Z,0.75
2022-09-10T05:20:35.715Z,0.80
2022-09-10T05:23:37.761Z,0.55
2022-09-10T05:26:41.308Z,0.70
2022-09-10T05:29:44.751Z,0.50
2022-09-10T05:32:46.811Z,0.88
2022-09-10T05:35:49.978Z,1.15
2022-09-10T05:38:52.657Z,1.02
2022-09-10T05:41:56.373Z,0.70
2022-09-10T05:44:58.957Z,0.75
2022-09-10T05:48:02.550Z,0.90
2022-09-10T05:51:04.537Z,0.80
2022-09-10T05:54:06.575Z,1.00
2022-09-10T06:00:11.965Z,0.60
2022-09-10T06:03:16.742Z,0.90
2022-09-10T06:06:22.414Z,1.30
2022-09-10T06:09:31.712Z,0.70
2022-09-10T06:12:39.730Z,0.77
2022-09-10T06:15:41.719Z,0.70
2022-09-10T06:18:45.602Z,0.80
2022-09-10T06:21:50.790Z,1.00
2022-09-10T06:27:54.933Z,0.80
2022-09-10T06:30:56.891Z,1.00
2022-09-10T06:33:59.582Z,0.88
2022-09-10T06:37:04.373Z,0.90
2022-09-10T06:40:07.584Z,0.90
2022-09-10T06:43:10.406Z,0.90
2022-09-10T06:47:03.162Z,0.70
2022-09-10T06:49:56.081Z,0.68
2022-09-10T06:52:58.217Z,1.02
2022-09-10T06:56:01.530Z,0.80
2022-09-10T06:59:06.304Z,0.90
2022-09-10T07:02:17.895Z,0.70
2022-09-10T07:05:20.853Z,0.82
2022-09-10T07:08:23.162Z,0.73
2022-09-10T07:11:29.680Z,0.85
2022-09-10T07:14:37.559Z,0.60
2022-09-10T07:17:42.689Z,0.80
2022-09-10T07:20:46.859Z,0.75
2022-09-10T07:23:57.446Z,0.98
2022-09-10T07:26:59.433Z,0.60
2022-09-10T07:30:01.536Z,0.57
2022-09-10T07:36:09.333Z,0.80
2022-09-10T07:39:12.488Z,0.60
2022-09-10T07:42:16.213Z,0.60
2022-09-10T07:45:19.374Z,0.80
2022-09-10T07:48:22.347Z,0.90
2022-09-10T07:51:27.013Z,0.90
2022-09-10T07:54:30.987Z,0.65
2022-09-10T07:57:36.517Z,0.73
2022-09-10T08:00:39.462Z,0.60
2022-09-10T08:03:44.076Z,0.82
2022-09-10T08:06:48.287Z,0.90
2022-09-10T08:09:51.348Z,0.80
2022-09-10T08:12:54.278Z,1.05
2022-09-10T08:15:58.035Z,0.50
2022-09-10T08:19:00.278Z,0.70
2022-09-10T08:22:04.958Z,0.68
2022-09-10T08:25:15.681Z,0.70
2022-09-10T08:28:21.396Z,0.95
2022-09-10T08:31:27.699Z,0.65
2022-09-10T08:34:35.589Z,0.90
2022-09-10T08:37:43.493Z,0.60
2022-09-10T08:40:45.456Z,0.60
2022-09-10T08:44:00.274Z,0.82
2022-09-10T08:47:32.513Z,0.40
2022-09-10T08:50:46.943Z,1.52
2022-09-10T08:54:02.540Z,0.80
2022-09-10T08:57:06.618Z,0.50
2022-09-10T09:00:13.877Z,1.00
2022-09-10T09:03:29.411Z,0.80
2022-09-10T09:06:38.234Z,0.70
2022-09-10T09:09:40.871Z,0.70
2022-09-10T09:13:14.899Z,0.63
2022-09-10T09:16:25.486Z,0.60
2022-09-10T09:19:34.678Z,0.73
2022-09-10T09:22:59.799Z,0.63
2022-09-10T09:26:14.701Z,0.93
2022-09-10T09:29:41.281Z,0.93
2022-09-10T09:32:45.403Z,0.65
2022-09-10T09:36:01.242Z,1.17
2022-09-10T09:39:17.158Z,1.02
2022-09-10T09:42:29.118Z,1.20
2022-09-10T09:45:42.103Z,1.33
2022-09-10T09:48:45.305Z,0.80
2022-09-10T09:51:49.175Z,1.00
2022-09-10T09:55:15.741Z,0.80
2022-09-10T09:58:23.964Z,0.73
2022-09-10T10:01:27.143Z,0.93
2022-09-10T10:04:29.165Z,1.00
2022-09-10T10:10:34.202Z,0.70
2022-09-10T10:13:44.605Z,0.98
2022-09-10T10:16:48.010Z,0.93
2022-09-10T10:20:10.685Z,0.90
2022-09-10T10:23:35.448Z,0.98
2022-09-10T10:26:37.430Z,0.90
2022-09-10T10:33:03.035Z,1.02
2022-09-10T10:36:15.292Z,0.88
2022-09-10T10:39:43.968Z,1.08
2022-09-10T10:43:28.503Z,0.77
2022-09-10T10:47:01.884Z,0.90
2022-09-10T10:50:13.097Z,0.73
2022-09-10T11:03:39.915Z,1.25
2022-09-10T11:06:47.395Z,1.33
2022-09-10T11:10:25.479Z,1.27
2022-09-10T11:16:58.000Z,0.98
2022-09-10T11:20:30.084Z,0.98
2022-09-10T11:23:45.612Z,0.70
2022-09-10T11:26:58.264Z,0.82
2022-09-10T11:30:14.396Z,1.35
2022-09-10T11:33:28.777Z,1.15
2022-09-10T11:36:39.615Z,1.33
2022-09-10T11:39:54.451Z,1.10
2022-09-10T11:43:03.005Z,0.98
2022-09-10T11:46:11.727Z,0.93
2022-09-10T11:49:20.339Z,1.90
2022-09-10T11:52:24.583Z,0.90
2022-09-10T11:55:55.327Z,0.80
2022-09-10T11:59:11.492Z,1.20
2022-09-10T12:02:32.401Z,1.20
2022-09-10T12:05:52.536Z,1.25
2022-09-10T12:09:03.517Z,0.80
2022-09-10T12:12:09.232Z,1.10
2022-09-10T12:15:31.572Z,0.90
2022-09-10T12:18:43.074Z,1.38
2022-09-10T12:21:51.653Z,1.17
2022-09-10T12:25:01.959Z,0.82
2022-09-10T12:28:05.694Z,1.13
2022-09-10T12:31:11.717Z,1.05
2022-09-10T12:34:19.429Z,1.10
2022-09-10T12:37:24.898Z,0.75
2022-09-10T12:40:26.707Z,1.00
2022-09-10T12:43:40.888Z,0.88
2022-09-10T12:46:45.164Z,1.10
2022-09-10T12:50:00.279Z,1.05
2022-09-10T12:53:31.381Z,1.35
2022-09-10T12:57:12.141Z,0.80
2022-09-10T13:00:25.611Z,1.02
2022-09-10T13:03:30.518Z,0.80
2022-09-10T13:06:40.933Z,1.17
2022-09-10T13:09:42.966Z,0.90
2022-09-10T13:12:45.673Z,0.60
2022-09-10T13:15:53.075Z,0.93
2022-09-10T13:19:14.962Z,0.90
2022-09-10T13:22:53.691Z,1.17
2022-09-10T13:26:44.581Z,1.40
2022-09-10T13:29:53.584Z,1.33
2022-09-10T13:32:59.309Z,1.25
2022-09-10T13:36:34.611Z,1.52
2022-09-10T13:39:57.878Z,1.45
2022-09-10T13:43:12.132Z,1.30
2022-09-10T13:46:32.674Z,1.45
2022-09-10T13:49:55.605Z,1.60
2022-09-10T13:53:00.266Z,1.02
2022-09-10T13:56:16.617Z,1.23
2022-09-10T13:59:28.005Z,1.20
2022-09-10T14:02:51.019Z,0.85
2022-09-10T14:06:04.150Z,0.88
2022-09-10T14:09:07.100Z,0.98
2022-09-10T14:12:10.802Z,0.90
2022-09-10T14:15:17.471Z,1.17
2022-09-10T14:18:20.191Z,1.27
2022-09-10T14:21:22.325Z,1.65
2022-09-10T14:24:28.486Z,0.88
2022-09-10T14:27:32.687Z,1.25
2022-09-10T14:30:34.632Z,1.20
2022-09-10T14:33:36.802Z,1.40
2022-09-10T14:36:38.906Z,0.82
2022-09-10T14:39:44.433Z,0.95
2022-09-10T14:42:48.502Z,1.10
2022-09-10T14:45:50.494Z,1.40
2022-09-10T14:52:01.787Z,0.75
2022-09-10T14:55:03.802Z,1.00
2022-09-10T15:01:07.551Z,1.30
2022-09-10T15:07:21.752Z,1.00
2022-09-10T15:10:23.583Z,0.93
2022-09-10T15:13:25.464Z,0.70
2022-09-10T15:16:27.662Z,0.75
2022-09-10T15:19:29.671Z,0.70
2022-09-10T15:22:31.609Z,1.17
2022-09-10T15:28:46.746Z,0.73
2022-09-10T15:34:50.572Z,1.20
2022-09-10T15:41:13.943Z,0.88
2022-09-10T15:44:15.847Z,0.73
2022-09-10T15:50:19.637Z,0.77
2022-09-10T15:56:23.967Z,0.90
2022-09-10T15:59:25.853Z,0.60
2022-09-10T16:02:27.981Z,0.95
2022-09-10T16:05:31.699Z,0.90
2022-09-10T16:08:33.980Z,1.20
2022-09-10T16:11:37.747Z,1.10
2022-09-10T16:14:39.693Z,1.27
2022-09-10T16:17:41.671Z,1.13
2022-09-10T16:20:43.518Z,0.90
2022-09-10T16:23:47.436Z,1.10
2022-09-10T16:26:49.361Z,1.45
2022-09-10T16:29:51.204Z,0.80
2022-09-10T16:32:53.100Z,0.73
2022-09-10T16:35:55.045Z,1.17
2022-09-10T16:38:58.254Z,1.55
2022-09-10T16:42:00.100Z,1.48
2022-09-10T16:45:02.089Z,1.85
2022-09-10T16:48:04.533Z,1.33
2022-09-10T16:51:10.904Z,1.05
2022-09-10T16:54:13.910Z,1.63
2022-09-10T16:57:15.778Z,1.45
2022-09-10T17:00:17.721Z,1.42
2022-09-10T17:03:19.616Z,1.30
2022-09-10T17:06:24.009Z,1.30
2022-09-10T17:09:26.180Z,1.55
2022-09-10T17:15:29.986Z,1.55
2022-09-10T17:18:31.818Z,1.55
2022-09-10T17:21:35.386Z,1.27
2022-09-10T17:24:37.230Z,1.15
2022-09-10T17:27:39.110Z,1.38
2022-09-10T17:30:40.963Z,1.33
2022-09-10T17:33:42.894Z,1.20
2022-09-10T17:36:46.608Z,1.35
2022-09-10T17:39:48.644Z,1.10
2022-09-10T17:42:50.531Z,1.27
2022-09-10T17:45:52.758Z,1.20
2022-09-10T17:48:55.445Z,1.27
2022-09-10T17:51:57.356Z,1.17
2022-09-10T17:54:59.283Z,1.10
2022-09-10T17:58:03.700Z,1.42
2022-09-10T18:01:10.837Z,1.30
2022-09-10T18:04:12.943Z,1.23
2022-09-10T18:10:16.723Z,1.27
2022-09-10T18:13:18.567Z,1.10
2022-09-10T18:16:22.872Z,1.15
2022-09-10T18:19:25.460Z,1.00
2022-09-10T18:22:27.514Z,1.27
2022-09-10T18:25:30.399Z,1.10
2022-09-10T18:28:32.271Z,1.30
2022-09-10T18:31:37.035Z,1.10
2022-09-10T18:34:39.064Z,1.05
2022-09-10T18:37:40.959Z,1.15
2022-09-10T18:40:42.912Z,1.10
2022-09-10T18:46:48.972Z,1.60
2022-09-10T18:49:50.964Z,1.33
2022-09-10T18:52:52.800Z,1.00
2022-09-10T18:55:54.863Z,1.10
2022-09-10T18:59:13.108Z,1.10
2022-09-10T19:02:15.164Z,1.15
2022-09-10T19:08:18.861Z,1.17
2022-09-10T19:11:22.609Z,1.25
2022-09-10T19:14:29.637Z,1.33
2022-09-10T19:17:31.466Z,0.77
2022-09-10T19:20:36.767Z,1.17
2022-09-10T19:23:38.735Z,1.08
2022-09-10T19:26:40.962Z,1.17
2022-09-10T19:29:42.795Z,1.50
2022-09-10T19:32:44.662Z,1.13
2022-09-10T19:35:46.862Z,1.05
2022-09-10T19:38:48.852Z,1.33
2022-09-10T19:41:53.575Z,1.38
2022-09-10T19:44:56.520Z,1.42
2022-09-10T19:47:59.074Z,1.23
2022-09-10T19:51:02.755Z,1.27
2022-09-10T19:54:05.586Z,1.10
2022-09-10T19:57:08.543Z,1.30
2022-09-10T20:00:24.774Z,1.13
2022-09-10T20:03:36.171Z,1.15
2022-09-10T20:06:39.244Z,0.98
2022-09-10T20:09:41.091Z,1.10
2022-09-10T20:12:44.268Z,1.17
2022-09-10T20:15:46.409Z,1.17
2022-09-10T20:21:50.221Z,1.13
2022-09-10T20:24:52.206Z,1.17
2022-09-10T20:27:54.283Z,1.23
2022-09-10T20:34:04.449Z,1.05
2022-09-10T20:37:06.431Z,1.27
2022-09-10T20:40:10.684Z,1.92
2022-09-10T20:43:12.566Z,1.15
2022-09-10T20:46:16.402Z,1.25
2022-09-10T20:49:18.487Z,1.05
2022-09-10T20:55:22.408Z,1.30
2022-09-10T20:58:24.306Z,1.10
2022-09-10T21:01:28.372Z,1.13
2022-09-10T21:04:32.614Z,1.48
2022-09-10T21:07:34.458Z,1.63
2022-09-10T21:10:37.036Z,1.10
2022-09-10T21:13:44.738Z,1.38
2022-09-10T21:16:46.665Z,1.50
2022-09-10T21:19:48.561Z,1.95
2022-09-10T21:22:50.454Z,2.25
2022-09-10T21:25:52.336Z,1.35
2022-09-10T21:29:02.658Z,1.75
2022-09-10T21:32:04.597Z,2.13
2022-09-10T21:35:06.994Z,1.35
2022-09-10T21:38:09.011Z,1.45
2022-09-10T21:41:15.017Z,1.30
2022-09-10T21:44:22.645Z,1.33
2022-09-10T21:47:24.509Z,1.30
2022-09-10T21:50:26.412Z,1.52
2022-09-10T21:53:28.549Z,1.40
2022-09-10T21:59:32.654Z,1.40
2022-09-10T22:02:34.665Z,1.67
2022-09-10T22:08:41.416Z,1.70
2022-09-10T22:11:46.081Z,1.50
2022-09-10T22:14:47.931Z,1.83
2022-09-10T22:17:49.919Z,1.45
2022-09-10T22:20:56.912Z,1.70
2022-09-10T22:23:59.565Z,1.35
2022-09-10T22:27:01.423Z,1.60
2022-09-10T22:30:04.052Z,1.60
2022-09-10T22:33:05.952Z,1.30
2022-09-10T22:36:09.387Z,1.50
2022-09-10T22:39:14.414Z,1.80
2022-09-10T22:42:16.240Z,2.00
2022-09-10T22:45:18.991Z,1.60
2022-09-10T22:48:20.973Z,1.88
2022-09-10T22:51:29.234Z,1.48
2022-09-10T22:57:33.012Z,1.58
2022-09-10T23:00:35.705Z,1.33
2022-09-10T23:03:38.437Z,2.17
2022-09-10T23:06:40.451Z,1.85
2022-09-10T23:09:42.317Z,1.73
2022-09-10T23:12:44.310Z,1.90
2022-09-10T23:15:46.176Z,1.33
2022-09-10T23:21:54.408Z,1.60
2022-09-10T23:24:56.371Z,1.73
2022-09-10T23:27:58.840Z,1.75
2022-09-10T23:31:31.271Z,1.60
2022-09-10T23:34:33.194Z,2.22
2022-09-10T23:37:35.363Z,1.60
2022-09-10T23:43:40.045Z,1.52
2022-09-10T23:46:42.070Z,1.63
2022-09-10T23:49:43.895Z,1.70
2022-09-10T23:52:45.787Z,1.75
2022-09-10T23:55:48.430Z,2.42
2022-09-10T23:58:50.284Z,1.85
